sensor_id;sensor_type;location;lat;lon;timestamp;pressure;altitude;pressure_sealevel;temperature;humidity
61324;BME280;47203;48.428;11.974;2023-06-14T00:00:52;96355.28;;;20.44;32.83
61324;BME280;47203;48.428;11.974;2023-06-14T00:02:58;96352.94;;;20.43;33.08
61324;BME280;47203;48.428;11.974;2023-06-14T00:05:05;96349.06;;;20.40;33.20
61324;BME280;47203;48.428;11.974;2023-06-14T00:07:10;96347.84;;;20.37;32.69
61324;BME280;47203;48.428;11.974;2023-06-14T00:09:18;96350.84;;;20.36;33.46
61324;BME280;47203;48.428;11.974;2023-06-14T00:11:23;96347.38;;;20.35;32.76
61324;BME280;47203;48.428;11.974;2023-06-14T00:13:28;96350.38;;;20.34;33.23
61324;BME280;47203;48.428;11.974;2023-06-14T00:15:34;96346.19;;;20.33;33.15
61324;BME280;47203;48.428;11.974;2023-06-14T00:17:39;96351.41;;;20.29;33.01
61324;BME280;47203;48.428;11.974;2023-06-14T00:19:44;96347.50;;;20.27;33.18
61324;BME280;47203;48.428;11.974;2023-06-14T00:21:49;96349.41;;;20.26;33.08
61324;BME280;47203;48.428;11.974;2023-06-14T00:23:54;96347.06;;;20.25;33.43
61324;BME280;47203;48.428;11.974;2023-06-14T00:26:02;96341.97;;;20.19;33.56
61324;BME280;47203;48.428;11.974;2023-06-14T00:28:06;96343.84;;;20.19;33.20
61324;BME280;47203;48.428;11.974;2023-06-14T00:30:13;96338.84;;;20.17;33.57
61324;BME280;47203;48.428;11.974;2023-06-14T00:32:18;96336.84;;;20.14;33.31
61324;BME280;47203;48.428;11.974;2023-06-14T00:34:30;96338.63;;;20.10;33.46
61324;BME280;47203;48.428;11.974;2023-06-14T00:36:35;96339.28;;;20.07;33.82
61324;BME280;47203;48.428;11.974;2023-06-14T00:38:40;96340.72;;;20.04;33.49
61324;BME280;47203;48.428;11.974;2023-06-14T00:40:45;96337.63;;;20.02;33.67
61324;BME280;47203;48.428;11.974;2023-06-14T00:42:53;96342.84;;;19.99;33.57
61324;BME280;47203;48.428;11.974;2023-06-14T00:45:00;96341.31;;;19.98;33.48
61324;BME280;47203;48.428;11.974;2023-06-14T00:47:05;96336.63;;;19.95;33.42
61324;BME280;47203;48.428;11.974;2023-06-14T00:49:10;96338.84;;;19.93;33.98
61324;BME280;47203;48.428;11.974;2023-06-14T00:51:17;96340.28;;;19.90;33.88
61324;BME280;47203;48.428;11.974;2023-06-14T00:53:22;96334.50;;;19.88;33.59
61324;BME280;47203;48.428;11.974;2023-06-14T00:55:27;96334.41;;;19.84;33.95
61324;BME280;47203;48.428;11.974;2023-06-14T00:57:32;96335.38;;;19.80;33.87
61324;BME280;47203;48.428;11.974;2023-06-14T00:59:45;96335.25;;;19.76;34.27
61324;BME280;47203;48.428;11.974;2023-06-14T01:01:50;96334.78;;;19.74;33.53
61324;BME280;47203;48.428;11.974;2023-06-14T01:03:55;96337.78;;;19.73;34.06
61324;BME280;47203;48.428;11.974;2023-06-14T01:06:05;96327.34;;;19.67;34.21
61324;BME280;47203;48.428;11.974;2023-06-14T01:08:23;96331.91;;;19.67;34.32
61324;BME280;47203;48.428;11.974;2023-06-14T01:10:35;96331.22;;;19.58;33.52
61324;BME280;47203;48.428;11.974;2023-06-14T01:12:47;96331.56;;;19.56;34.31
61324;BME280;47203;48.428;11.974;2023-06-14T01:14:59;96331.13;;;19.54;34.52
61324;BME280;47203;48.428;11.974;2023-06-14T01:17:07;96329.56;;;19.53;34.43
61324;BME280;47203;48.428;11.974;2023-06-14T01:19:18;96337.97;;;19.43;33.80
61324;BME280;47203;48.428;11.974;2023-06-14T01:21:27;96331.88;;;19.42;34.12
61324;BME280;47203;48.428;11.974;2023-06-14T01:23:35;96329.88;;;19.39;34.53
61324;BME280;47203;48.428;11.974;2023-06-14T01:25:40;96329.41;;;19.37;34.18
61324;BME280;47203;48.428;11.974;2023-06-14T01:27:47;96334.31;;;19.35;34.57
61324;BME280;47203;48.428;11.974;2023-06-14T01:29:53;96335.75;;;19.32;34.71
61324;BME280;47203;48.428;11.974;2023-06-14T01:31:59;96336.06;;;19.31;34.54
61324;BME280;47203;48.428;11.974;2023-06-14T01:34:05;96336.72;;;19.28;34.29
61324;BME280;47203;48.428;11.974;2023-06-14T01:36:10;96339.28;;;19.24;34.69
61324;BME280;47203;48.428;11.974;2023-06-14T01:38:17;96332.72;;;19.22;34.49
61324;BME280;47203;48.428;11.974;2023-06-14T01:40:27;96332.59;;;19.18;34.75
61324;BME280;47203;48.428;11.974;2023-06-14T01:42:34;96323.00;;;19.17;34.47
61324;BME280;47203;48.428;11.974;2023-06-14T01:44:42;96324.47;;;19.14;34.57
61324;BME280;47203;48.428;11.974;2023-06-14T01:46:48;96328.25;;;19.13;34.44
61324;BME280;47203;48.428;11.974;2023-06-14T01:48:57;96327.00;;;19.11;34.63
61324;BME280;47203;48.428;11.974;2023-06-14T01:51:02;96331.91;;;19.09;34.94
61324;BME280;47203;48.428;11.974;2023-06-14T01:53:07;96332.22;;;19.07;35.03
61324;BME280;47203;48.428;11.974;2023-06-14T01:55:12;96329.09;;;19.05;34.66
61324;BME280;47203;48.428;11.974;2023-06-14T01:57:23;96329.00;;;19.01;34.90
61324;BME280;47203;48.428;11.974;2023-06-14T01:59:28;96327.09;;;19.02;34.82
61324;BME280;47203;48.428;11.974;2023-06-14T02:01:33;96338.53;;;19.02;34.85
61324;BME280;47203;48.428;11.974;2023-06-14T02:03:38;96335.41;;;19.00;34.92
61324;BME280;47203;48.428;11.974;2023-06-14T02:05:44;96334.66;;;19.00;35.05
61324;BME280;47203;48.428;11.974;2023-06-14T02:07:49;96329.19;;;18.96;35.10
61324;BME280;47203;48.428;11.974;2023-06-14T02:09:55;96329.84;;;18.93;35.22
61324;BME280;47203;48.428;11.974;2023-06-14T02:12:01;96338.50;;;18.90;35.11
61324;BME280;47203;48.428;11.974;2023-06-14T02:14:09;96336.47;;;18.87;35.55
61324;BME280;47203;48.428;11.974;2023-06-14T02:16:14;96332.53;;;18.84;35.14
61324;BME280;47203;48.428;11.974;2023-06-14T02:18:19;96331.31;;;18.82;35.17
61324;BME280;47203;48.428;11.974;2023-06-14T02:20:25;96330.88;;;18.80;35.23
61324;BME280;47203;48.428;11.974;2023-06-14T02:22:31;96339.97;;;18.79;35.47
61324;BME280;47203;48.428;11.974;2023-06-14T02:24:36;96333.84;;;18.78;35.15
61324;BME280;47203;48.428;11.974;2023-06-14T02:26:42;96334.63;;;18.79;35.30
61324;BME280;47203;48.428;11.974;2023-06-14T02:28:49;96334.31;;;18.80;35.25
61324;BME280;47203;48.428;11.974;2023-06-14T02:30:56;96335.09;;;18.81;35.52
61324;BME280;47203;48.428;11.974;2023-06-14T02:33:02;96321.78;;;18.81;35.38
61324;BME280;47203;48.428;11.974;2023-06-14T02:35:08;96329.56;;;18.86;35.43
61324;BME280;47203;48.428;11.974;2023-06-14T02:37:13;96341.03;;;18.87;35.33
61324;BME280;47203;48.428;11.974;2023-06-14T02:39:18;96340.72;;;18.88;35.18
61324;BME280;47203;48.428;11.974;2023-06-14T02:41:25;96344.59;;;18.91;35.60
61324;BME280;47203;48.428;11.974;2023-06-14T02:43:30;96338.50;;;18.90;35.38
61324;BME280;47203;48.428;11.974;2023-06-14T02:45:35;96346.94;;;18.92;35.11
61324;BME280;47203;48.428;11.974;2023-06-14T02:47:42;96345.84;;;18.93;35.43
61324;BME280;47203;48.428;11.974;2023-06-14T02:49:48;96348.50;;;18.93;35.55
61324;BME280;47203;48.428;11.974;2023-06-14T02:51:53;96343.50;;;18.92;35.17
61324;BME280;47203;48.428;11.974;2023-06-14T02:53:58;96351.50;;;18.92;35.42
61324;BME280;47203;48.428;11.974;2023-06-14T02:56:03;96342.25;;;18.89;35.38
61324;BME280;47203;48.428;11.974;2023-06-14T02:58:08;96341.81;;;18.87;35.11
61324;BME280;47203;48.428;11.974;2023-06-14T03:00:13;96341.66;;;18.83;35.19
61324;BME280;47203;48.428;11.974;2023-06-14T03:02:21;96348.09;;;18.82;35.37
61324;BME280;47203;48.428;11.974;2023-06-14T03:04:29;96340.75;;;18.79;35.68
61324;BME280;47203;48.428;11.974;2023-06-14T03:06:44;96342.63;;;18.79;35.17
61324;BME280;47203;48.428;11.974;2023-06-14T03:08:54;96342.63;;;18.79;35.26
61324;BME280;47203;48.428;11.974;2023-06-14T03:11:01;96339.97;;;18.79;35.30
61324;BME280;47203;48.428;11.974;2023-06-14T03:13:09;96335.75;;;18.78;35.61
61324;BME280;47203;48.428;11.974;2023-06-14T03:15:14;96331.53;;;18.77;35.54
61324;BME280;47203;48.428;11.974;2023-06-14T03:17:22;96337.63;;;18.77;35.23
61324;BME280;47203;48.428;11.974;2023-06-14T03:19:36;96344.09;;;18.76;35.77
61324;BME280;47203;48.428;11.974;2023-06-14T03:21:43;96344.09;;;18.76;35.73
61324;BME280;47203;48.428;11.974;2023-06-14T03:23:49;96351.28;;;18.76;35.57
61324;BME280;47203;48.428;11.974;2023-06-14T03:25:55;96342.84;;;18.74;35.52
61324;BME280;47203;48.428;11.974;2023-06-14T03:28:00;96343.94;;;18.73;35.61
61324;BME280;47203;48.428;11.974;2023-06-14T03:30:07;96346.94;;;18.71;35.98
61324;BME280;47203;48.428;11.974;2023-06-14T03:32:13;96354.16;;;18.71;35.85
61324;BME280;47203;48.428;11.974;2023-06-14T03:34:18;96359.00;;;18.69;35.91
61324;BME280;47203;48.428;11.974;2023-06-14T03:36:26;96354.47;;;18.69;35.77
61324;BME280;47203;48.428;11.974;2023-06-14T03:38:31;96352.16;;;18.67;35.68
61324;BME280;47203;48.428;11.974;2023-06-14T03:40:37;96353.25;;;18.66;35.51
61324;BME280;47203;48.428;11.974;2023-06-14T03:42:43;96357.00;;;18.65;35.91
61324;BME280;47203;48.428;11.974;2023-06-14T03:44:48;96358.09;;;18.64;35.95
61324;BME280;47203;48.428;11.974;2023-06-14T03:46:55;96368.31;;;18.62;35.90
61324;BME280;47203;48.428;11.974;2023-06-14T03:49:02;96357.53;;;18.59;35.87
61324;BME280;47203;48.428;11.974;2023-06-14T03:51:07;96361.94;;;18.55;35.87
61324;BME280;47203;48.428;11.974;2023-06-14T03:53:15;96366.69;;;18.49;36.24
61324;BME280;47203;48.428;11.974;2023-06-14T03:55:24;96370.78;;;18.46;35.99
61324;BME280;47203;48.428;11.974;2023-06-14T03:57:34;96374.53;;;18.45;36.23
61324;BME280;47203;48.428;11.974;2023-06-14T03:59:43;96374.84;;;18.44;36.20
61324;BME280;47203;48.428;11.974;2023-06-14T04:01:49;96382.84;;;18.44;36.53
61324;BME280;47203;48.428;11.974;2023-06-14T04:03:56;96390.53;;;18.45;36.47
61324;BME280;47203;48.428;11.974;2023-06-14T04:06:02;96388.66;;;18.46;36.54
61324;BME280;47203;48.428;11.974;2023-06-14T04:08:07;96383.78;;;18.48;36.33
61324;BME280;47203;48.428;11.974;2023-06-14T04:10:19;96384.88;;;18.47;36.31
61324;BME280;47203;48.428;11.974;2023-06-14T04:12:24;96383.00;;;18.47;36.41
61324;BME280;47203;48.428;11.974;2023-06-14T04:14:28;96388.00;;;18.49;36.54
61324;BME280;47203;48.428;11.974;2023-06-14T04:16:35;96386.91;;;18.50;36.34
61324;BME280;47203;48.428;11.974;2023-06-14T04:18:40;96391.13;;;18.51;36.80
61324;BME280;47203;48.428;11.974;2023-06-14T04:20:45;96390.03;;;18.52;36.92
61324;BME280;47203;48.428;11.974;2023-06-14T04:22:50;96398.34;;;18.51;36.92
61324;BME280;47203;48.428;11.974;2023-06-14T04:24:56;96397.56;;;18.50;37.11
61324;BME280;47203;48.428;11.974;2023-06-14T04:27:09;96396.00;;;18.49;37.19
61324;BME280;47203;48.428;11.974;2023-06-14T04:29:15;96395.19;;;18.48;37.20
61324;BME280;47203;48.428;11.974;2023-06-14T04:31:31;96397.09;;;18.48;37.09
61324;BME280;47203;48.428;11.974;2023-06-14T04:33:42;96400.53;;;18.48;37.51
61324;BME280;47203;48.428;11.974;2023-06-14T04:35:55;96411.66;;;18.51;37.60
61324;BME280;47203;48.428;11.974;2023-06-14T04:38:02;96410.25;;;18.53;37.54
61324;BME280;47203;48.428;11.974;2023-06-14T04:40:12;96403.16;;;18.57;37.57
61324;BME280;47203;48.428;11.974;2023-06-14T04:42:20;96410.53;;;18.60;37.73
61324;BME280;47203;48.428;11.974;2023-06-14T04:44:27;96418.63;;;18.64;37.35
61324;BME280;47203;48.428;11.974;2023-06-14T04:46:36;96420.66;;;18.67;37.53
61324;BME280;47203;48.428;11.974;2023-06-14T04:48:48;96420.81;;;18.71;37.51
61324;BME280;47203;48.428;11.974;2023-06-14T04:50:52;96416.69;;;18.73;37.82
61324;BME280;47203;48.428;11.974;2023-06-14T04:52:57;96417.59;;;18.77;37.52
61324;BME280;47203;48.428;11.974;2023-06-14T04:55:03;96411.28;;;18.82;37.65
61324;BME280;47203;48.428;11.974;2023-06-14T04:57:09;96422.09;;;18.86;37.74
61324;BME280;47203;48.428;11.974;2023-06-14T04:59:20;96415.06;;;18.90;38.09
61324;BME280;47203;48.428;11.974;2023-06-14T05:01:26;96423.16;;;18.93;38.00
61324;BME280;47203;48.428;11.974;2023-06-14T05:03:31;96424.84;;;18.98;37.77
61324;BME280;47203;48.428;11.974;2023-06-14T05:05:37;96424.19;;;19.01;37.92
61324;BME280;47203;48.428;11.974;2023-06-14T05:07:42;96423.56;;;19.04;38.01
61324;BME280;47203;48.428;11.974;2023-06-14T05:09:48;96423.34;;;19.09;37.96
61324;BME280;47203;48.428;11.974;2023-06-14T05:11:53;96420.03;;;19.12;38.01
61324;BME280;47203;48.428;11.974;2023-06-14T05:13:58;96436.97;;;19.16;37.86
61324;BME280;47203;48.428;11.974;2023-06-14T05:16:06;96438.97;;;19.19;37.82
61324;BME280;47203;48.428;11.974;2023-06-14T05:18:11;96433.78;;;19.23;37.89
61324;BME280;47203;48.428;11.974;2023-06-14T05:20:17;96437.31;;;19.27;37.84
61324;BME280;47203;48.428;11.974;2023-06-14T05:22:22;96429.00;;;19.29;37.66
61324;BME280;47203;48.428;11.974;2023-06-14T05:24:27;96434.47;;;19.32;38.28
61324;BME280;47203;48.428;11.974;2023-06-14T05:26:34;96432.25;;;19.34;38.16
61324;BME280;47203;48.428;11.974;2023-06-14T05:28:38;96436.91;;;19.38;38.17
61324;BME280;47203;48.428;11.974;2023-06-14T05:30:43;96438.63;;;19.42;37.76
61324;BME280;47203;48.428;11.974;2023-06-14T05:32:51;96444.41;;;19.44;37.75
61324;BME280;47203;48.428;11.974;2023-06-14T05:34:57;96446.41;;;19.47;37.75
61324;BME280;47203;48.428;11.974;2023-06-14T05:37:02;96454.56;;;19.51;37.76
61324;BME280;47203;48.428;11.974;2023-06-14T05:39:06;96453.09;;;19.53;38.00
61324;BME280;47203;48.428;11.974;2023-06-14T05:41:12;96446.34;;;19.56;37.54
61324;BME280;47203;48.428;11.974;2023-06-14T05:43:17;96448.34;;;19.59;37.88
61324;BME280;47203;48.428;11.974;2023-06-14T05:45:22;96448.81;;;19.61;38.07
61324;BME280;47203;48.428;11.974;2023-06-14T05:47:27;96456.94;;;19.65;37.55
61324;BME280;47203;48.428;11.974;2023-06-14T05:49:34;96454.25;;;19.65;37.30
61324;BME280;47203;48.428;11.974;2023-06-14T05:51:39;96458.94;;;19.68;37.43
61324;BME280;47203;48.428;11.974;2023-06-14T05:53:44;96461.28;;;19.69;37.25
61324;BME280;47203;48.428;11.974;2023-06-14T05:55:49;96455.59;;;19.71;36.96
61324;BME280;47203;48.428;11.974;2023-06-14T05:57:56;96462.19;;;19.74;37.30
61324;BME280;47203;48.428;11.974;2023-06-14T06:00:01;96454.63;;;19.76;37.09
61324;BME280;47203;48.428;11.974;2023-06-14T06:02:12;96451.63;;;19.77;37.04
61324;BME280;47203;48.428;11.974;2023-06-14T06:04:17;96452.88;;;19.80;37.02
61324;BME280;47203;48.428;11.974;2023-06-14T06:06:25;96449.88;;;19.81;37.07
61324;BME280;47203;48.428;11.974;2023-06-14T06:08:31;96451.91;;;19.84;37.21
61324;BME280;47203;48.428;11.974;2023-06-14T06:10:37;96453.91;;;19.87;37.14
61324;BME280;47203;48.428;11.974;2023-06-14T06:12:42;96458.59;;;19.91;37.28
61324;BME280;47203;48.428;11.974;2023-06-14T06:14:49;96467.03;;;19.93;36.82
61324;BME280;47203;48.428;11.974;2023-06-14T06:16:54;96464.03;;;19.94;36.69
61324;BME280;47203;48.428;11.974;2023-06-14T06:18:59;96471.72;;;19.96;36.96
61324;BME280;47203;48.428;11.974;2023-06-14T06:21:04;96468.72;;;19.97;36.68
61324;BME280;47203;48.428;11.974;2023-06-14T06:23:11;96471.06;;;19.99;36.98
61324;BME280;47203;48.428;11.974;2023-06-14T06:25:16;96466.94;;;20.01;36.94
61324;BME280;47203;48.428;11.974;2023-06-14T06:27:21;96464.75;;;20.03;36.59
61324;BME280;47203;48.428;11.974;2023-06-14T06:29:26;96471.28;;;20.06;37.10
61324;BME280;47203;48.428;11.974;2023-06-14T06:31:31;96473.63;;;20.08;36.94
61324;BME280;47203;48.428;11.974;2023-06-14T06:33:36;96479.88;;;20.12;36.74
61324;BME280;47203;48.428;11.974;2023-06-14T06:35:41;96464.66;;;20.12;36.58
61324;BME280;47203;48.428;11.974;2023-06-14T06:37:47;96470.41;;;20.14;36.80
61324;BME280;47203;48.428;11.974;2023-06-14T06:39:54;96469.75;;;20.17;36.88
61324;BME280;47203;48.428;11.974;2023-06-14T06:41:59;96479.78;;;20.20;37.06
61324;BME280;47203;48.428;11.974;2023-06-14T06:44:10;96474.91;;;20.22;36.85
61324;BME280;47203;48.428;11.974;2023-06-14T06:46:16;96478.78;;;20.25;37.21
61324;BME280;47203;48.428;11.974;2023-06-14T06:48:21;96481.56;;;20.29;37.08
61324;BME280;47203;48.428;11.974;2023-06-14T06:50:26;96484.69;;;20.31;36.52
61324;BME280;47203;48.428;11.974;2023-06-14T06:52:30;96489.69;;;20.32;36.90
61324;BME280;47203;48.428;11.974;2023-06-14T06:54:35;96484.00;;;20.34;37.09
61324;BME280;47203;48.428;11.974;2023-06-14T06:56:43;96483.69;;;20.35;37.01
61324;BME280;47203;48.428;11.974;2023-06-14T06:58:48;96489.91;;;20.39;36.89
61324;BME280;47203;48.428;11.974;2023-06-14T07:00:53;96491.94;;;20.43;37.26
61324;BME280;47203;48.428;11.974;2023-06-14T07:02:58;96488.59;;;20.46;37.20
61324;BME280;47203;48.428;11.974;2023-06-14T07:05:03;96487.94;;;20.49;37.36
61324;BME280;47203;48.428;11.974;2023-06-14T07:07:09;96489.16;;;20.51;37.35
61324;BME280;47203;48.428;11.974;2023-06-14T07:09:14;96493.06;;;20.54;37.13
61324;BME280;47203;48.428;11.974;2023-06-14T07:11:18;96490.03;;;20.55;38.39
61324;BME280;47203;48.428;11.974;2023-06-14T07:13:26;96491.63;;;20.56;38.41
61324;BME280;47203;48.428;11.974;2023-06-14T07:15:31;96493.94;;;20.58;38.44
61324;BME280;47203;48.428;11.974;2023-06-14T07:17:36;96496.63;;;20.58;38.12
61324;BME280;47203;48.428;11.974;2023-06-14T07:19:40;96502.75;;;20.58;38.04
61324;BME280;47203;48.428;11.974;2023-06-14T07:21:48;96497.38;;;20.58;38.55
61324;BME280;47203;48.428;11.974;2023-06-14T07:23:54;96493.63;;;20.60;38.22
61324;BME280;47203;48.428;11.974;2023-06-14T07:25:59;96492.84;;;20.59;38.15
61324;BME280;47203;48.428;11.974;2023-06-14T07:28:04;96504.31;;;20.60;38.53
61324;BME280;47203;48.428;11.974;2023-06-14T07:30:12;96499.72;;;20.60;37.77
61324;BME280;47203;48.428;11.974;2023-06-14T07:32:17;96506.66;;;20.61;37.92
61324;BME280;47203;48.428;11.974;2023-06-14T07:34:22;96506.31;;;20.63;37.37
61324;BME280;47203;48.428;11.974;2023-06-14T07:36:28;96504.41;;;20.63;37.80
61324;BME280;47203;48.428;11.974;2023-06-14T07:38:33;96507.06;;;20.63;37.91
61324;BME280;47203;48.428;11.974;2023-06-14T07:40:38;96506.78;;;20.65;39.12
61324;BME280;47203;48.428;11.974;2023-06-14T07:42:43;96519.84;;;20.66;38.93
61324;BME280;47203;48.428;11.974;2023-06-14T07:44:48;96513.34;;;20.67;38.54
61324;BME280;47203;48.428;11.974;2023-06-14T07:46:56;96514.16;;;20.68;39.03
61324;BME280;47203;48.428;11.974;2023-06-14T07:49:02;96510.34;;;20.69;39.38
61324;BME280;47203;48.428;11.974;2023-06-14T07:51:07;96514.59;;;20.70;40.22
61324;BME280;47203;48.428;11.974;2023-06-14T07:53:12;96514.59;;;20.70;39.29
61324;BME280;47203;48.428;11.974;2023-06-14T07:55:17;96515.00;;;20.72;38.72
61324;BME280;47203;48.428;11.974;2023-06-14T07:57:22;96517.38;;;20.73;38.87
61324;BME280;47203;48.428;11.974;2023-06-14T07:59:27;96512.47;;;20.75;39.12
61324;BME280;47203;48.428;11.974;2023-06-14T08:01:32;96512.13;;;20.77;39.12
61324;BME280;47203;48.428;11.974;2023-06-14T08:03:40;96517.16;;;20.79;40.24
61324;BME280;47203;48.428;11.974;2023-06-14T08:05:45;96526.41;;;20.81;39.87
61324;BME280;47203;48.428;11.974;2023-06-14T08:07:50;96519.94;;;20.82;39.51
61324;BME280;47203;48.428;11.974;2023-06-14T08:09:55;96519.59;;;20.84;39.19
61324;BME280;47203;48.428;11.974;2023-06-14T08:12:00;96528.84;;;20.86;40.05
61324;BME280;47203;48.428;11.974;2023-06-14T08:14:04;96525.81;;;20.88;40.88
61324;BME280;47203;48.428;11.974;2023-06-14T08:16:09;96529.72;;;20.90;40.78
61324;BME280;47203;48.428;11.974;2023-06-14T08:18:14;96535.53;;;20.92;39.75
61324;BME280;47203;48.428;11.974;2023-06-14T08:20:22;96531.72;;;20.93;39.19
61324;BME280;47203;48.428;11.974;2023-06-14T08:22:27;96527.59;;;20.96;40.04
61324;BME280;47203;48.428;11.974;2023-06-14T08:24:34;96529.94;;;20.98;40.67
61324;BME280;47203;48.428;11.974;2023-06-14T08:26:39;96529.59;;;20.99;40.22
61324;BME280;47203;48.428;11.974;2023-06-14T08:28:44;96523.91;;;21.01;39.64
61324;BME280;47203;48.428;11.974;2023-06-14T08:30:49;96524.72;;;21.01;40.00
61324;BME280;47203;48.428;11.974;2023-06-14T08:32:53;96528.25;;;21.05;40.34
61324;BME280;47203;48.428;11.974;2023-06-14T08:35:16;96533.72;;;21.09;39.61
61324;BME280;47203;48.428;11.974;2023-06-14T08:37:24;96528.03;;;21.10;39.89
61324;BME280;47203;48.428;11.974;2023-06-14T08:39:31;96526.25;;;21.15;39.47
61324;BME280;47203;48.428;11.974;2023-06-14T08:41:36;96524.78;;;21.17;40.23
61324;BME280;47203;48.428;11.974;2023-06-14T08:43:41;96529.47;;;21.20;40.76
61324;BME280;47203;48.428;11.974;2023-06-14T08:45:46;96531.47;;;21.23;39.79
61324;BME280;47203;48.428;11.974;2023-06-14T08:47:53;96534.25;;;21.27;39.75
61324;BME280;47203;48.428;11.974;2023-06-14T08:50:00;96540.06;;;21.29;39.50
61324;BME280;47203;48.428;11.974;2023-06-14T08:52:08;96546.59;;;21.32;39.75
61324;BME280;47203;48.428;11.974;2023-06-14T08:54:17;96546.59;;;21.32;39.49
61324;BME280;47203;48.428;11.974;2023-06-14T08:56:25;96547.50;;;21.36;39.93
61324;BME280;47203;48.428;11.974;2023-06-14T08:58:31;96554.84;;;21.39;39.80
61324;BME280;47203;48.428;11.974;2023-06-14T09:00:36;96550.38;;;21.43;39.42
61324;BME280;47203;48.428;11.974;2023-06-14T09:02:43;96554.72;;;21.48;39.62
61324;BME280;47203;48.428;11.974;2023-06-14T09:04:48;96551.03;;;21.52;39.58
61324;BME280;47203;48.428;11.974;2023-06-14T09:06:54;96556.94;;;21.58;39.46
61324;BME280;47203;48.428;11.974;2023-06-14T09:09:00;96550.25;;;21.64;38.72
61324;BME280;47203;48.428;11.974;2023-06-14T09:11:10;96558.38;;;21.68;39.71
61324;BME280;47203;48.428;11.974;2023-06-14T09:13:16;96556.22;;;21.73;39.81
61324;BME280;47203;48.428;11.974;2023-06-14T09:15:21;96553.63;;;21.77;40.30
61324;BME280;47203;48.428;11.974;2023-06-14T09:17:26;96556.09;;;21.82;39.48
61324;BME280;47203;48.428;11.974;2023-06-14T09:19:31;96545.91;;;21.88;39.45
61324;BME280;47203;48.428;11.974;2023-06-14T09:21:37;96552.91;;;21.92;39.18
61324;BME280;47203;48.428;11.974;2023-06-14T09:23:43;96548.44;;;21.96;39.75
61324;BME280;47203;48.428;11.974;2023-06-14T09:25:50;96555.88;;;22.03;38.85
61324;BME280;47203;48.428;11.974;2023-06-14T09:27:57;96550.28;;;22.08;38.96
61324;BME280;47203;48.428;11.974;2023-06-14T09:30:03;96550.81;;;22.14;39.56
61324;BME280;47203;48.428;11.974;2023-06-14T09:32:10;96549.09;;;22.22;39.43
61324;BME280;47203;48.428;11.974;2023-06-14T09:34:16;96553.41;;;22.26;39.10
61324;BME280;47203;48.428;11.974;2023-06-14T09:36:25;96556.31;;;22.34;38.54
61324;BME280;47203;48.428;11.974;2023-06-14T09:38:30;96556.94;;;22.43;38.11
61324;BME280;47203;48.428;11.974;2023-06-14T09:40:35;96558.66;;;22.51;37.39
61324;BME280;47203;48.428;11.974;2023-06-14T09:42:42;96558.06;;;22.58;37.07
61324;BME280;47203;48.428;11.974;2023-06-14T09:44:50;96567.03;;;22.65;36.76
61324;BME280;47203;48.428;11.974;2023-06-14T09:46:56;96562.28;;;22.75;37.29
61324;BME280;47203;48.428;11.974;2023-06-14T09:49:01;96566.69;;;22.83;37.67
61324;BME280;47203;48.428;11.974;2023-06-14T09:51:07;96563.06;;;22.91;37.37
61324;BME280;47203;48.428;11.974;2023-06-14T09:53:12;96566.69;;;22.99;37.24
61324;BME280;47203;48.428;11.974;2023-06-14T09:55:19;96554.19;;;23.07;37.30
61324;BME280;47203;48.428;11.974;2023-06-14T09:57:25;96562.06;;;23.15;37.14
61324;BME280;47203;48.428;11.974;2023-06-14T09:59:34;96555.75;;;23.24;37.47
61324;BME280;47203;48.428;11.974;2023-06-14T10:01:43;96555.09;;;23.30;37.17
61324;BME280;47203;48.428;11.974;2023-06-14T10:03:49;96561.06;;;23.40;36.96
61324;BME280;47203;48.428;11.974;2023-06-14T10:06:10;96556.63;;;23.47;36.60
61324;BME280;47203;48.428;11.974;2023-06-14T10:08:18;96556.00;;;23.54;35.98
61324;BME280;47203;48.428;11.974;2023-06-14T10:10:24;96555.34;;;23.61;36.25
61324;BME280;47203;48.428;11.974;2023-06-14T10:12:32;96557.75;;;23.66;35.70
61324;BME280;47203;48.428;11.974;2023-06-14T10:14:38;96561.72;;;23.72;36.20
61324;BME280;47203;48.428;11.974;2023-06-14T10:16:52;96554.16;;;23.78;34.95
61324;BME280;47203;48.428;11.974;2023-06-14T10:19:07;96552.69;;;23.80;34.33
61324;BME280;47203;48.428;11.974;2023-06-14T10:21:23;96559.34;;;23.86;34.43
61324;BME280;47203;48.428;11.974;2023-06-14T10:23:33;96552.13;;;23.91;34.62
61324;BME280;47203;48.428;11.974;2023-06-14T10:25:42;96551.47;;;23.97;35.67
61324;BME280;47203;48.428;11.974;2023-06-14T10:27:47;96543.53;;;24.04;35.83
61324;BME280;47203;48.428;11.974;2023-06-14T10:30:06;96555.53;;;24.11;34.48
61324;BME280;47203;48.428;11.974;2023-06-14T10:32:14;96549.13;;;24.15;34.86
61324;BME280;47203;48.428;11.974;2023-06-14T10:34:22;96546.91;;;24.21;34.81
61324;BME280;47203;48.428;11.974;2023-06-14T10:36:31;96548.94;;;24.28;34.16
61324;BME280;47203;48.428;11.974;2023-06-14T10:38:37;96547.47;;;24.30;34.45
61324;BME280;47203;48.428;11.974;2023-06-14T10:40:44;96537.94;;;24.36;34.79
61324;BME280;47203;48.428;11.974;2023-06-14T10:42:57;96541.88;;;24.43;34.50
61324;BME280;47203;48.428;11.974;2023-06-14T10:45:08;96536.22;;;24.48;34.30
61324;BME280;47203;48.428;11.974;2023-06-14T10:47:31;96536.69;;;24.53;34.13
61324;BME280;47203;48.428;11.974;2023-06-14T10:49:39;96542.59;;;24.59;33.98
61324;BME280;47203;48.428;11.974;2023-06-14T10:51:46;96540.34;;;24.65;33.59
61324;BME280;47203;48.428;11.974;2023-06-14T10:53:56;96541.97;;;24.69;33.40
61324;BME280;47203;48.428;11.974;2023-06-14T10:56:06;96538.56;;;24.72;33.37
61324;BME280;47203;48.428;11.974;2023-06-14T10:58:13;96537.84;;;24.76;33.48
61324;BME280;47203;48.428;11.974;2023-06-14T11:00:18;96532.13;;;24.81;33.19
61324;BME280;47203;48.428;11.974;2023-06-14T11:03:18;96530.63;;;24.83;31.88